Sawyer, Kansas
Current Conditions -  °F | °C
As of 10:15 AM on Thursday 18 Dec 2014 (Local Time) from KPTT Reporting Station
Haze Haze  
Wind Chill: 30°   Ceiling: 100
Heat Index: 30°   Visibility: 1.5mi
Dew Point: 30°   Wind: 0mph
Humidity: 100%   Direction: NA
Pressure: 30.19"   Gusts: NA
Location:  37.5°N, 98.68°W
Report Text: KPTT 181615Z AUTO 00000KT 1 1/2SM BR OVC001 M01/M01 A3019 RMK AO2
Loading
Personal Weather Stations






























Interactive Weather Map New forecast layout! Learn more

10-Day Weather Forecast

Advertisements
Track Severe Weather on mobile